sensor_id;sensor_type;location;lat;lon;timestamp;P1;durP1;ratioP1;P2;durP2;ratioP2
15498;SDS011;7851;52.260;6.030;2023-05-10T00:03:18;8.1;;;7.4;;
15498;SDS011;7851;52.260;6.030;2023-05-10T00:03:18;7.5;;;6.9;;
15498;SDS011;7851;52.260;6.030;2023-05-10T00:03:18;8.5;;;7.7;;
15498;SDS011;7851;52.260;6.030;2023-05-10T00:04:17;9.4;;;8.5;;
15498;SDS011;7851;52.260;6.030;2023-05-10T00:05:17;8.7;;;7.9;;
15498;SDS011;7851;52.260;6.030;2023-05-10T00:06:17;8.9;;;8.1;;
15498;SDS011;7851;52.260;6.030;2023-05-10T00:07:17;8.9;;;8.1;;
15498;SDS011;7851;52.260;6.030;2023-05-10T00:08:17;8.2;;;7.4;;
15498;SDS011;7851;52.260;6.030;2023-05-10T00:09:17;9.4;;;8.1;;
15498;SDS011;7851;52.260;6.030;2023-05-10T00:10:17;9.4;;;8.5;;
15498;SDS011;7851;52.260;6.030;2023-05-10T00:11:17;9.3;;;8.5;;
15498;SDS011;7851;52.260;6.030;2023-05-10T00:12:18;9.4;;;8.5;;
15498;SDS011;7851;52.260;6.030;2023-05-10T00:13:17;10.3;;;9.2;;
15498;SDS011;7851;52.260;6.030;2023-05-10T00:14:17;10.7;;;9;;
15498;SDS011;7851;52.260;6.030;2023-05-10T00:15:17;10.6;;;9.6;;
15498;SDS011;7851;52.260;6.030;2023-05-10T00:16:17;10;;;9;;
15498;SDS011;7851;52.260;6.030;2023-05-10T00:17:17;10.2;;;9.1;;
15498;SDS011;7851;52.260;6.030;2023-05-10T00:18:18;10.4;;;9.4;;
15498;SDS011;7851;52.260;6.030;2023-05-10T00:19:17;10.2;;;9.3;;
15498;SDS011;7851;52.260;6.030;2023-05-10T00:20:17;10.6;;;9.5;;
15498;SDS011;7851;52.260;6.030;2023-05-10T00:21:17;10.5;;;8.9;;
15498;SDS011;7851;52.260;6.030;2023-05-10T00:22:17;9.7;;;8.8;;
15498;SDS011;7851;52.260;6.030;2023-05-10T00:23:17;10.4;;;9.4;;
15498;SDS011;7851;52.260;6.030;2023-05-10T00:24:17;11.2;;;10.1;;
15498;SDS011;7851;52.260;6.030;2023-05-10T00:25:17;11.9;;;9.9;;
15498;SDS011;7851;52.260;6.030;2023-05-10T00:26:17;10.2;;;9.3;;
15498;SDS011;7851;52.260;6.030;2023-05-10T00:27:17;11.3;;;10;;
15498;SDS011;7851;52.260;6.030;2023-05-10T00:28:17;11.3;;;10.2;;
15498;SDS011;7851;52.260;6.030;2023-05-10T00:29:17;10.5;;;9.4;;
15498;SDS011;7851;52.260;6.030;2023-05-10T00:30:17;10.7;;;9.6;;
15498;SDS011;7851;52.260;6.030;2023-05-10T00:31:17;11;;;9.9;;
15498;SDS011;7851;52.260;6.030;2023-05-10T00:32:17;11.6;;;10;;
15498;SDS011;7851;52.260;6.030;2023-05-10T00:33:17;11.9;;;10.8;;
15498;SDS011;7851;52.260;6.030;2023-05-10T00:34:17;12.2;;;10.6;;
15498;SDS011;7851;52.260;6.030;2023-05-10T00:35:17;11.9;;;10.7;;
15498;SDS011;7851;52.260;6.030;2023-05-10T00:36:17;11.9;;;10.7;;
15498;SDS011;7851;52.260;6.030;2023-05-10T00:37:17;13;;;11.7;;
15498;SDS011;7851;52.260;6.030;2023-05-10T00:38:17;12.5;;;11.2;;
15498;SDS011;7851;52.260;6.030;2023-05-10T00:39:17;13.5;;;10.9;;
15498;SDS011;7851;52.260;6.030;2023-05-10T00:40:17;11.9;;;10.8;;
15498;SDS011;7851;52.260;6.030;2023-05-10T00:41:17;11.4;;;10.2;;
15498;SDS011;7851;52.260;6.030;2023-05-10T00:42:17;11.7;;;10.6;;
15498;SDS011;7851;52.260;6.030;2023-05-10T00:43:17;12;;;10.7;;
15498;SDS011;7851;52.260;6.030;2023-05-10T00:44:17;13.7;;;11.5;;
15498;SDS011;7851;52.260;6.030;2023-05-10T00:45:17;13;;;10.8;;
15498;SDS011;7851;52.260;6.030;2023-05-10T00:46:17;12.6;;;11.4;;
15498;SDS011;7851;52.260;6.030;2023-05-10T00:47:17;11.8;;;10.6;;
15498;SDS011;7851;52.260;6.030;2023-05-10T00:48:17;14.2;;;10.7;;
15498;SDS011;7851;52.260;6.030;2023-05-10T00:49:17;12.3;;;11;;
15498;SDS011;7851;52.260;6.030;2023-05-10T00:50:17;13;;;11.6;;
15498;SDS011;7851;52.260;6.030;2023-05-10T00:51:17;15.2;;;13.6;;
15498;SDS011;7851;52.260;6.030;2023-05-10T00:52:17;12.7;;;11.5;;
15498;SDS011;7851;52.260;6.030;2023-05-10T00:53:17;13.8;;;12.5;;
15498;SDS011;7851;52.260;6.030;2023-05-10T00:54:17;14.2;;;12.6;;
15498;SDS011;7851;52.260;6.030;2023-05-10T00:55:18;15.5;;;13.9;;
15498;SDS011;7851;52.260;6.030;2023-05-10T00:56:17;13.8;;;12.4;;
15498;SDS011;7851;52.260;6.030;2023-05-10T00:57:17;14.9;;;13.1;;
15498;SDS011;7851;52.260;6.030;2023-05-10T00:58:17;16.6;;;13.2;;
15498;SDS011;7851;52.260;6.030;2023-05-10T00:59:17;17.1;;;14.1;;
15498;SDS011;7851;52.260;6.030;2023-05-10T01:00:17;13.9;;;12.5;;
15498;SDS011;7851;52.260;6.030;2023-05-10T01:01:17;15.6;;;12.8;;
15498;SDS011;7851;52.260;6.030;2023-05-10T01:02:17;15.7;;;13.2;;
15498;SDS011;7851;52.260;6.030;2023-05-10T01:03:17;14.3;;;12.6;;
15498;SDS011;7851;52.260;6.030;2023-05-10T01:04:17;16;;;13.4;;
15498;SDS011;7851;52.260;6.030;2023-05-10T01:05:17;16;;;14.3;;
15498;SDS011;7851;52.260;6.030;2023-05-10T01:06:17;17;;;14.5;;
15498;SDS011;7851;52.260;6.030;2023-05-10T01:07:17;18.6;;;14.3;;
15498;SDS011;7851;52.260;6.030;2023-05-10T01:08:17;17.6;;;14.2;;
15498;SDS011;7851;52.260;6.030;2023-05-10T01:09:17;17.2;;;15.2;;
15498;SDS011;7851;52.260;6.030;2023-05-10T01:10:17;16.8;;;13.7;;
15498;SDS011;7851;52.260;6.030;2023-05-10T01:11:17;17.7;;;14;;
15498;SDS011;7851;52.260;6.030;2023-05-10T01:12:17;17;;;14.9;;
15498;SDS011;7851;52.260;6.030;2023-05-10T01:13:28;17.7;;;15.3;;
15498;SDS011;7851;52.260;6.030;2023-05-10T01:14:17;18.7;;;15.3;;
15498;SDS011;7851;52.260;6.030;2023-05-10T01:15:17;17.4;;;15.3;;
15498;SDS011;7851;52.260;6.030;2023-05-10T01:16:17;17.3;;;15.2;;
15498;SDS011;7851;52.260;6.030;2023-05-10T01:17:17;19.7;;;15.2;;
15498;SDS011;7851;52.260;6.030;2023-05-10T01:18:17;19.1;;;16;;
15498;SDS011;7851;52.260;6.030;2023-05-10T01:19:18;18.6;;;16.6;;
15498;SDS011;7851;52.260;6.030;2023-05-10T01:20:17;16.8;;;14.7;;
15498;SDS011;7851;52.260;6.030;2023-05-10T01:21:19;19.1;;;16;;
15498;SDS011;7851;52.260;6.030;2023-05-10T01:22:25;19.4;;;17.3;;
15498;SDS011;7851;52.260;6.030;2023-05-10T01:23:24;17.8;;;15.8;;
15498;SDS011;7851;52.260;6.030;2023-05-10T01:24:23;20.1;;;15.9;;
15498;SDS011;7851;52.260;6.030;2023-05-10T01:25:22;16.7;;;15;;
15498;SDS011;7851;52.260;6.030;2023-05-10T01:26:23;18.7;;;16.4;;
15498;SDS011;7851;52.260;6.030;2023-05-10T01:27:20;19.6;;;16.4;;
15498;SDS011;7851;52.260;6.030;2023-05-10T01:28:23;24.2;;;18.1;;
15498;SDS011;7851;52.260;6.030;2023-05-10T01:29:23;19.4;;;16.8;;
15498;SDS011;7851;52.260;6.030;2023-05-10T01:30:22;26.2;;;18.4;;
15498;SDS011;7851;52.260;6.030;2023-05-10T01:31:22;19.5;;;17.4;;
15498;SDS011;7851;52.260;6.030;2023-05-10T01:32:21;22.8;;;18.8;;
15498;SDS011;7851;52.260;6.030;2023-05-10T01:33:18;21.3;;;18.6;;
15498;SDS011;7851;52.260;6.030;2023-05-10T01:34:19;23.1;;;18.5;;
15498;SDS011;7851;52.260;6.030;2023-05-10T01:35:19;23;;;17.1;;
15498;SDS011;7851;52.260;6.030;2023-05-10T01:36:19;21.3;;;18.4;;
15498;SDS011;7851;52.260;6.030;2023-05-10T01:37:19;24.8;;;18.9;;
15498;SDS011;7851;52.260;6.030;2023-05-10T01:38:18;18.4;;;16.5;;
15498;SDS011;7851;52.260;6.030;2023-05-10T01:39:20;25;;;18.9;;
15498;SDS011;7851;52.260;6.030;2023-05-10T01:40:19;24.2;;;20.5;;
15498;SDS011;7851;52.260;6.030;2023-05-10T01:41:18;22.2;;;19;;
15498;SDS011;7851;52.260;6.030;2023-05-10T01:42:19;22.8;;;18.8;;
15498;SDS011;7851;52.260;6.030;2023-05-10T01:43:19;24.7;;;19.5;;
15498;SDS011;7851;52.260;6.030;2023-05-10T01:44:18;24.1;;;19.7;;
15498;SDS011;7851;52.260;6.030;2023-05-10T01:45:19;31.7;;;22;;
15498;SDS011;7851;52.260;6.030;2023-05-10T01:46:20;24.7;;;21.3;;
15498;SDS011;7851;52.260;6.030;2023-05-10T01:47:20;25.8;;;19.8;;
15498;SDS011;7851;52.260;6.030;2023-05-10T01:48:17;27.6;;;21.5;;
15498;SDS011;7851;52.260;6.030;2023-05-10T01:49:19;24.1;;;19.8;;
15498;SDS011;7851;52.260;6.030;2023-05-10T01:50:18;22.1;;;18.8;;
15498;SDS011;7851;52.260;6.030;2023-05-10T01:51:19;25.4;;;19.1;;
15498;SDS011;7851;52.260;6.030;2023-05-10T01:52:18;25.5;;;20.6;;
15498;SDS011;7851;52.260;6.030;2023-05-10T01:53:18;23.8;;;19.9;;
15498;SDS011;7851;52.260;6.030;2023-05-10T01:54:19;27.3;;;22.1;;
15498;SDS011;7851;52.260;6.030;2023-05-10T01:55:18;25.9;;;20.9;;
15498;SDS011;7851;52.260;6.030;2023-05-10T01:56:18;26.5;;;21.5;;
15498;SDS011;7851;52.260;6.030;2023-05-10T01:57:17;27.3;;;22;;
15498;SDS011;7851;52.260;6.030;2023-05-10T01:58:19;26.3;;;21.5;;
15498;SDS011;7851;52.260;6.030;2023-05-10T01:59:18;28.7;;;23.4;;
15498;SDS011;7851;52.260;6.030;2023-05-10T02:00:17;29.7;;;23;;
15498;SDS011;7851;52.260;6.030;2023-05-10T02:01:17;35.2;;;25.4;;
15498;SDS011;7851;52.260;6.030;2023-05-10T02:02:18;25;;;22.1;;
15498;SDS011;7851;52.260;6.030;2023-05-10T02:03:18;30.1;;;23.2;;
15498;SDS011;7851;52.260;6.030;2023-05-10T02:04:17;26.5;;;22.2;;
15498;SDS011;7851;52.260;6.030;2023-05-10T02:05:17;33.6;;;24.5;;
15498;SDS011;7851;52.260;6.030;2023-05-10T02:06:18;28.8;;;22.8;;
15498;SDS011;7851;52.260;6.030;2023-05-10T02:07:17;34.6;;;25.5;;
15498;SDS011;7851;52.260;6.030;2023-05-10T02:08:17;28.7;;;24.8;;
15498;SDS011;7851;52.260;6.030;2023-05-10T02:09:17;32.7;;;25.8;;
15498;SDS011;7851;52.260;6.030;2023-05-10T02:10:17;29.5;;;24.5;;
15498;SDS011;7851;52.260;6.030;2023-05-10T02:11:18;31.7;;;25.9;;
15498;SDS011;7851;52.260;6.030;2023-05-10T02:12:17;36.7;;;27.6;;
15498;SDS011;7851;52.260;6.030;2023-05-10T02:13:18;32.8;;;27.1;;
15498;SDS011;7851;52.260;6.030;2023-05-10T02:14:17;36;;;27.9;;
15498;SDS011;7851;52.260;6.030;2023-05-10T02:15:20;39.5;;;28.3;;
15498;SDS011;7851;52.260;6.030;2023-05-10T02:16:17;34.5;;;27;;
15498;SDS011;7851;52.260;6.030;2023-05-10T02:17:17;36.4;;;27.7;;
15498;SDS011;7851;52.260;6.030;2023-05-10T02:18:17;32.6;;;27.2;;
15498;SDS011;7851;52.260;6.030;2023-05-10T02:19:17;35.6;;;27.2;;
15498;SDS011;7851;52.260;6.030;2023-05-10T02:20:18;38;;;29.2;;
15498;SDS011;7851;52.260;6.030;2023-05-10T02:21:17;36.1;;;28.3;;
15498;SDS011;7851;52.260;6.030;2023-05-10T02:22:17;41.2;;;29.3;;
15498;SDS011;7851;52.260;6.030;2023-05-10T02:23:17;40.1;;;29.3;;
15498;SDS011;7851;52.260;6.030;2023-05-10T02:24:17;40.4;;;29.3;;
15498;SDS011;7851;52.260;6.030;2023-05-10T02:25:18;42;;;29.5;;
15498;SDS011;7851;52.260;6.030;2023-05-10T02:26:17;37.1;;;28.1;;
15498;SDS011;7851;52.260;6.030;2023-05-10T02:27:17;39.4;;;30.5;;
15498;SDS011;7851;52.260;6.030;2023-05-10T02:28:17;40.5;;;31.1;;
15498;SDS011;7851;52.260;6.030;2023-05-10T02:29:18;38.2;;;31;;
15498;SDS011;7851;52.260;6.030;2023-05-10T02:30:17;43.3;;;30.9;;
15498;SDS011;7851;52.260;6.030;2023-05-10T02:31:17;43.4;;;31.9;;
15498;SDS011;7851;52.260;6.030;2023-05-10T02:32:17;40.4;;;29;;
15498;SDS011;7851;52.260;6.030;2023-05-10T02:33:17;42.6;;;30.8;;
15498;SDS011;7851;52.260;6.030;2023-05-10T02:34:17;42.3;;;30;;
15498;SDS011;7851;52.260;6.030;2023-05-10T02:35:17;47.6;;;32.3;;
15498;SDS011;7851;52.260;6.030;2023-05-10T02:36:17;46.4;;;33.6;;
15498;SDS011;7851;52.260;6.030;2023-05-10T02:37:18;36.8;;;28.8;;
15498;SDS011;7851;52.260;6.030;2023-05-10T02:38:18;43;;;31.5;;
15498;SDS011;7851;52.260;6.030;2023-05-10T02:39:17;41.1;;;30;;
15498;SDS011;7851;52.260;6.030;2023-05-10T02:40:17;43;;;31.9;;
15498;SDS011;7851;52.260;6.030;2023-05-10T02:41:17;44.5;;;32.1;;
15498;SDS011;7851;52.260;6.030;2023-05-10T02:42:18;44.3;;;32.1;;
15498;SDS011;7851;52.260;6.030;2023-05-10T02:43:17;40.9;;;32.7;;
15498;SDS011;7851;52.260;6.030;2023-05-10T02:44:18;49.1;;;33.4;;
15498;SDS011;7851;52.260;6.030;2023-05-10T02:45:18;46.1;;;33.1;;
15498;SDS011;7851;52.260;6.030;2023-05-10T02:46:17;43.6;;;33;;
15498;SDS011;7851;52.260;6.030;2023-05-10T02:47:17;48.8;;;33;;
15498;SDS011;7851;52.260;6.030;2023-05-10T02:48:17;34.2;;;27.4;;
15498;SDS011;7851;52.260;6.030;2023-05-10T02:49:17;41.3;;;29.9;;
15498;SDS011;7851;52.260;6.030;2023-05-10T02:50:17;45.7;;;31.7;;
15498;SDS011;7851;52.260;6.030;2023-05-10T02:51:18;43.9;;;33.1;;
15498;SDS011;7851;52.260;6.030;2023-05-10T02:52:19;49.3;;;34.3;;
15498;SDS011;7851;52.260;6.030;2023-05-10T02:53:18;54.5;;;34.8;;
15498;SDS011;7851;52.260;6.030;2023-05-10T02:54:18;49.2;;;34.4;;
15498;SDS011;7851;52.260;6.030;2023-05-10T02:55:19;45.9;;;34.5;;
15498;SDS011;7851;52.260;6.030;2023-05-10T02:56:20;45.9;;;32.6;;
15498;SDS011;7851;52.260;6.030;2023-05-10T02:57:18;53;;;35.7;;
15498;SDS011;7851;52.260;6.030;2023-05-10T02:58:17;48.3;;;34.1;;
15498;SDS011;7851;52.260;6.030;2023-05-10T02:59:17;47.1;;;33.6;;
15498;SDS011;7851;52.260;6.030;2023-05-10T03:00:17;54.9;;;36;;
15498;SDS011;7851;52.260;6.030;2023-05-10T03:01:17;59.5;;;38.3;;
15498;SDS011;7851;52.260;6.030;2023-05-10T03:02:17;55.3;;;35.8;;
15498;SDS011;7851;52.260;6.030;2023-05-10T03:03:17;48.8;;;34;;
15498;SDS011;7851;52.260;6.030;2023-05-10T03:04:17;45.5;;;32.2;;
15498;SDS011;7851;52.260;6.030;2023-05-10T03:05:17;49.4;;;35.6;;
15498;SDS011;7851;52.260;6.030;2023-05-10T03:06:17;51.1;;;34.1;;
15498;SDS011;7851;52.260;6.030;2023-05-10T03:07:17;50.6;;;34.8;;
15498;SDS011;7851;52.260;6.030;2023-05-10T03:08:17;59.9;;;38;;
15498;SDS011;7851;52.260;6.030;2023-05-10T03:09:17;48;;;35.2;;
15498;SDS011;7851;52.260;6.030;2023-05-10T03:10:17;49.4;;;35.3;;
15498;SDS011;7851;52.260;6.030;2023-05-10T03:11:23;60.9;;;38.8;;
15498;SDS011;7851;52.260;6.030;2023-05-10T03:12:19;61.7;;;38.9;;
15498;SDS011;7851;52.260;6.030;2023-05-10T03:13:25;50.6;;;36.6;;
15498;SDS011;7851;52.260;6.030;2023-05-10T03:14:21;55.4;;;36.3;;
15498;SDS011;7851;52.260;6.030;2023-05-10T03:15:18;59.9;;;39;;
15498;SDS011;7851;52.260;6.030;2023-05-10T03:16:19;49.4;;;33.3;;
15498;SDS011;7851;52.260;6.030;2023-05-10T03:17:19;53.9;;;34.5;;
15498;SDS011;7851;52.260;6.030;2023-05-10T03:18:18;57.9;;;39.3;;
15498;SDS011;7851;52.260;6.030;2023-05-10T03:19:20;59.5;;;37.6;;
15498;SDS011;7851;52.260;6.030;2023-05-10T03:20:20;51.5;;;36.9;;
15498;SDS011;7851;52.260;6.030;2023-05-10T03:21:17;62.9;;;38.8;;
15498;SDS011;7851;52.260;6.030;2023-05-10T03:22:19;53.3;;;37.4;;
15498;SDS011;7851;52.260;6.030;2023-05-10T03:23:21;56.8;;;36.6;;
15498;SDS011;7851;52.260;6.030;2023-05-10T03:24:18;52.1;;;39.3;;
15498;SDS011;7851;52.260;6.030;2023-05-10T03:25:17;69.1;;;41.1;;
15498;SDS011;7851;52.260;6.030;2023-05-10T03:26:20;63.1;;;41;;
15498;SDS011;7851;52.260;6.030;2023-05-10T03:27:17;73.5;;;42.4;;
15498;SDS011;7851;52.260;6.030;2023-05-10T03:28:18;76.2;;;44.5;;
15498;SDS011;7851;52.260;6.030;2023-05-10T03:29:17;67.2;;;42.6;;
15498;SDS011;7851;52.260;6.030;2023-05-10T03:30:17;69.9;;;43.5;;
15498;SDS011;7851;52.260;6.030;2023-05-10T03:31:17;72.4;;;44.4;;
15498;SDS011;7851;52.260;6.030;2023-05-10T03:32:17;63.4;;;41.3;;
15498;SDS011;7851;52.260;6.030;2023-05-10T03:33:17;65.4;;;41.3;;
15498;SDS011;7851;52.260;6.030;2023-05-10T03:34:22;68.1;;;42.5;;
15498;SDS011;7851;52.260;6.030;2023-05-10T03:35:17;62.6;;;40.2;;
15498;SDS011;7851;52.260;6.030;2023-05-10T03:36:18;65.1;;;43.2;;
15498;SDS011;7851;52.260;6.030;2023-05-10T03:37:17;67.6;;;43.2;;
15498;SDS011;7851;52.260;6.030;2023-05-10T03:38:17;70.9;;;43.3;;
15498;SDS011;7851;52.260;6.030;2023-05-10T03:39:17;68.4;;;43;;
15498;SDS011;7851;52.260;6.030;2023-05-10T03:40:17;63.2;;;41.4;;
15498;SDS011;7851;52.260;6.030;2023-05-10T03:41:17;72.4;;;44.4;;
15498;SDS011;7851;52.260;6.030;2023-05-10T03:42:17;70.4;;;44.7;;
15498;SDS011;7851;52.260;6.030;2023-05-10T03:43:17;74.1;;;45.6;;
15498;SDS011;7851;52.260;6.030;2023-05-10T03:44:17;62.7;;;42.1;;
15498;SDS011;7851;52.260;6.030;2023-05-10T03:45:17;55;;;39.4;;
15498;SDS011;7851;52.260;6.030;2023-05-10T03:46:17;68.6;;;43.8;;
15498;SDS011;7851;52.260;6.030;2023-05-10T03:47:17;76.1;;;43.8;;
15498;SDS011;7851;52.260;6.030;2023-05-10T03:48:17;59;;;40.4;;
15498;SDS011;7851;52.260;6.030;2023-05-10T03:49:17;65.9;;;42.5;;
15498;SDS011;7851;52.260;6.030;2023-05-10T03:50:17;70.8;;;45.2;;
15498;SDS011;7851;52.260;6.030;2023-05-10T03:51:17;72.1;;;44.9;;
15498;SDS011;7851;52.260;6.030;2023-05-10T03:52:17;67.4;;;43;;
15498;SDS011;7851;52.260;6.030;2023-05-10T03:53:17;75.6;;;46.4;;
15498;SDS011;7851;52.260;6.030;2023-05-10T03:54:17;74.2;;;44.2;;
15498;SDS011;7851;52.260;6.030;2023-05-10T03:55:17;60.7;;;41.6;;
15498;SDS011;7851;52.260;6.030;2023-05-10T03:56:17;73.5;;;45.7;;
15498;SDS011;7851;52.260;6.030;2023-05-10T03:57:17;64.9;;;44.3;;
15498;SDS011;7851;52.260;6.030;2023-05-10T03:58:17;63.5;;;42.4;;
15498;SDS011;7851;52.260;6.030;2023-05-10T03:59:17;54.2;;;38.1;;
15498;SDS011;7851;52.260;6.030;2023-05-10T04:00:17;67.4;;;43.1;;
15498;SDS011;7851;52.260;6.030;2023-05-10T04:01:17;73.8;;;45.1;;
15498;SDS011;7851;52.260;6.030;2023-05-10T04:02:17;77.7;;;44.8;;
15498;SDS011;7851;52.260;6.030;2023-05-10T04:03:17;70.6;;;45.3;;
15498;SDS011;7851;52.260;6.030;2023-05-10T04:04:17;67.4;;;43.2;;
15498;SDS011;7851;52.260;6.030;2023-05-10T04:05:17;61.4;;;42.6;;
15498;SDS011;7851;52.260;6.030;2023-05-10T04:06:17;65.1;;;39.8;;
15498;SDS011;7851;52.260;6.030;2023-05-10T04:07:17;64.1;;;41.8;;
15498;SDS011;7851;52.260;6.030;2023-05-10T04:08:17;64;;;41.3;;
15498;SDS011;7851;52.260;6.030;2023-05-10T04:09:17;57.9;;;39.3;;
15498;SDS011;7851;52.260;6.030;2023-05-10T04:10:17;65.4;;;44.4;;
15498;SDS011;7851;52.260;6.030;2023-05-10T04:11:17;57.5;;;38.1;;
15498;SDS011;7851;52.260;6.030;2023-05-10T04:12:17;64.5;;;42.9;;
15498;SDS011;7851;52.260;6.030;2023-05-10T04:13:17;62.8;;;43.3;;
15498;SDS011;7851;52.260;6.030;2023-05-10T04:14:17;70.6;;;43.2;;
15498;SDS011;7851;52.260;6.030;2023-05-10T04:15:17;54.2;;;39.1;;
15498;SDS011;7851;52.260;6.030;2023-05-10T04:16:17;61.2;;;42.7;;
15498;SDS011;7851;52.260;6.030;2023-05-10T04:17:17;51.4;;;36.2;;
15498;SDS011;7851;52.260;6.030;2023-05-10T04:18:17;65.7;;;42.5;;
15498;SDS011;7851;52.260;6.030;2023-05-10T04:19:17;58.5;;;40.6;;
15498;SDS011;7851;52.260;6.030;2023-05-10T04:20:17;59.2;;;39.9;;
15498;SDS011;7851;52.260;6.030;2023-05-10T04:21:17;55.2;;;39.8;;
15498;SDS011;7851;52.260;6.030;2023-05-10T04:22:17;50.1;;;36.9;;
15498;SDS011;7851;52.260;6.030;2023-05-10T04:23:17;51.7;;;37.8;;
15498;SDS011;7851;52.260;6.030;2023-05-10T04:24:17;47.4;;;33.8;;
15498;SDS011;7851;52.260;6.030;2023-05-10T04:25:17;49.4;;;35.4;;
15498;SDS011;7851;52.260;6.030;2023-05-10T04:26:17;55.2;;;36.1;;
15498;SDS011;7851;52.260;6.030;2023-05-10T04:27:17;56.6;;;37.7;;
15498;SDS011;7851;52.260;6.030;2023-05-10T04:28:17;61.4;;;38.2;;
15498;SDS011;7851;52.260;6.030;2023-05-10T04:29:17;57.9;;;37.6;;
15498;SDS011;7851;52.260;6.030;2023-05-10T04:30:17;53.4;;;36.5;;
15498;SDS011;7851;52.260;6.030;2023-05-10T04:31:17;57.1;;;37.3;;
15498;SDS011;7851;52.260;6.030;2023-05-10T04:32:17;53.3;;;35.5;;
15498;SDS011;7851;52.260;6.030;2023-05-10T04:33:17;56;;;36.9;;
15498;SDS011;7851;52.260;6.030;2023-05-10T04:34:17;52.2;;;36.6;;
15498;SDS011;7851;52.260;6.030;2023-05-10T04:35:17;49.3;;;36;;
15498;SDS011;7851;52.260;6.030;2023-05-10T04:36:17;52.3;;;35.9;;
15498;SDS011;7851;52.260;6.030;2023-05-10T04:37:17;51.1;;;36.5;;
15498;SDS011;7851;52.260;6.030;2023-05-10T04:38:17;51.1;;;36;;
15498;SDS011;7851;52.260;6.030;2023-05-10T04:39:17;53.5;;;36.8;;
15498;SDS011;7851;52.260;6.030;2023-05-10T04:40:17;52.9;;;35.6;;
15498;SDS011;7851;52.260;6.030;2023-05-10T04:41:17;50.7;;;36.1;;
15498;SDS011;7851;52.260;6.030;2023-05-10T04:42:17;59;;;37.8;;
15498;SDS011;7851;52.260;6.030;2023-05-10T04:43:17;58.6;;;36.7;;
15498;SDS011;7851;52.260;6.030;2023-05-10T04:44:17;52.5;;;35.8;;
15498;SDS011;7851;52.260;6.030;2023-05-10T04:45:17;54.3;;;35.7;;
15498;SDS011;7851;52.260;6.030;2023-05-10T04:46:17;56.4;;;36.8;;
15498;SDS011;7851;52.260;6.030;2023-05-10T04:47:17;58.4;;;37.1;;
15498;SDS011;7851;52.260;6.030;2023-05-10T04:48:17;57.9;;;39;;
15498;SDS011;7851;52.260;6.030;2023-05-10T04:49:17;60;;;39;;
15498;SDS011;7851;52.260;6.030;2023-05-10T04:50:17;61.1;;;37.9;;
15498;SDS011;7851;52.260;6.030;2023-05-10T04:51:17;54.7;;;36.9;;
15498;SDS011;7851;52.260;6.030;2023-05-10T04:52:17;58.3;;;36.9;;
15498;SDS011;7851;52.260;6.030;2023-05-10T04:53:17;57.3;;;37.6;;
15498;SDS011;7851;52.260;6.030;2023-05-10T04:54:17;53.4;;;37.2;;
15498;SDS011;7851;52.260;6.030;2023-05-10T04:55:17;49.4;;;35.7;;
15498;SDS011;7851;52.260;6.030;2023-05-10T04:56:17;58;;;37.4;;
15498;SDS011;7851;52.260;6.030;2023-05-10T04:57:17;56;;;36.2;;
15498;SDS011;7851;52.260;6.030;2023-05-10T04:58:17;55.1;;;36.4;;
15498;SDS011;7851;52.260;6.030;2023-05-10T04:59:18;58.9;;;38.4;;
15498;SDS011;7851;52.260;6.030;2023-05-10T05:00:18;55.2;;;35.9;;
15498;SDS011;7851;52.260;6.030;2023-05-10T05:01:17;57.1;;;38.1;;
15498;SDS011;7851;52.260;6.030;2023-05-10T05:02:17;56.9;;;37.7;;
15498;SDS011;7851;52.260;6.030;2023-05-10T05:03:17;63.5;;;39.5;;
15498;SDS011;7851;52.260;6.030;2023-05-10T05:04:17;54.5;;;36.2;;
15498;SDS011;7851;52.260;6.030;2023-05-10T05:05:17;57.4;;;39.5;;
15498;SDS011;7851;52.260;6.030;2023-05-10T05:06:17;62.5;;;39.1;;
15498;SDS011;7851;52.260;6.030;2023-05-10T05:07:17;68.1;;;40.6;;
15498;SDS011;7851;52.260;6.030;2023-05-10T05:08:17;63.2;;;40.3;;
15498;SDS011;7851;52.260;6.030;2023-05-10T05:09:17;67.5;;;40.7;;
15498;SDS011;7851;52.260;6.030;2023-05-10T05:10:17;66.5;;;41.7;;
15498;SDS011;7851;52.260;6.030;2023-05-10T05:11:17;70;;;41.5;;
15498;SDS011;7851;52.260;6.030;2023-05-10T05:12:17;65.6;;;41.9;;
15498;SDS011;7851;52.260;6.030;2023-05-10T05:13:17;76.6;;;44.6;;
15498;SDS011;7851;52.260;6.030;2023-05-10T05:14:17;64.5;;;41;;
15498;SDS011;7851;52.260;6.030;2023-05-10T05:15:17;69;;;42.5;;
15498;SDS011;7851;52.260;6.030;2023-05-10T05:16:17;68;;;41.6;;
15498;SDS011;7851;52.260;6.030;2023-05-10T05:17:17;64.7;;;40.6;;
15498;SDS011;7851;52.260;6.030;2023-05-10T05:18:17;60.3;;;38.6;;
15498;SDS011;7851;52.260;6.030;2023-05-10T05:19:17;61.2;;;39.5;;
15498;SDS011;7851;52.260;6.030;2023-05-10T05:20:17;57.7;;;39.4;;
15498;SDS011;7851;52.260;6.030;2023-05-10T05:21:18;66.1;;;41.4;;
15498;SDS011;7851;52.260;6.030;2023-05-10T05:22:17;61.9;;;39.6;;
15498;SDS011;7851;52.260;6.030;2023-05-10T05:23:17;71.1;;;42.7;;
15498;SDS011;7851;52.260;6.030;2023-05-10T05:24:17;60;;;37.2;;
15498;SDS011;7851;52.260;6.030;2023-05-10T05:25:17;70;;;41.7;;
15498;SDS011;7851;52.260;6.030;2023-05-10T05:26:17;61.2;;;38.6;;
15498;SDS011;7851;52.260;6.030;2023-05-10T05:27:17;69.4;;;40.7;;
15498;SDS011;7851;52.260;6.030;2023-05-10T05:28:17;70.9;;;42.4;;
15498;SDS011;7851;52.260;6.030;2023-05-10T05:29:18;62.2;;;40.5;;
15498;SDS011;7851;52.260;6.030;2023-05-10T05:30:17;72.8;;;41.9;;
15498;SDS011;7851;52.260;6.030;2023-05-10T05:31:17;62.3;;;38.6;;
15498;SDS011;7851;52.260;6.030;2023-05-10T05:32:17;68.3;;;41.5;;
15498;SDS011;7851;52.260;6.030;2023-05-10T05:33:17;65;;;39.3;;
15498;SDS011;7851;52.260;6.030;2023-05-10T05:34:17;78.1;;;44.8;;
15498;SDS011;7851;52.260;6.030;2023-05-10T05:35:17;72.7;;;40.3;;
15498;SDS011;7851;52.260;6.030;2023-05-10T05:36:17;71;;;41.6;;
15498;SDS011;7851;52.260;6.030;2023-05-10T05:40:17;68;;;40.4;;
15498;SDS011;7851;52.260;6.030;2023-05-10T05:41:17;79.3;;;41.9;;
15498;SDS011;7851;52.260;6.030;2023-05-10T05:42:17;82.3;;;43.5;;
15498;SDS011;7851;52.260;6.030;2023-05-10T05:43:17;89.8;;;45.1;;
15498;SDS011;7851;52.260;6.030;2023-05-10T05:44:17;78.9;;;41.6;;
15498;SDS011;7851;52.260;6.030;2023-05-10T05:45:17;66.5;;;41.5;;
15498;SDS011;7851;52.260;6.030;2023-05-10T05:46:17;81.5;;;42.7;;
15498;SDS011;7851;52.260;6.030;2023-05-10T05:47:17;87.6;;;44;;
15498;SDS011;7851;52.260;6.030;2023-05-10T05:48:17;67.8;;;40.5;;
15498;SDS011;7851;52.260;6.030;2023-05-10T05:49:17;83.5;;;44.3;;
15498;SDS011;7851;52.260;6.030;2023-05-10T05:50:17;74.4;;;42.1;;
15498;SDS011;7851;52.260;6.030;2023-05-10T05:51:17;62.7;;;39.4;;
15498;SDS011;7851;52.260;6.030;2023-05-10T05:52:17;76.3;;;43.6;;
15498;SDS011;7851;52.260;6.030;2023-05-10T05:53:17;68.8;;;40.2;;
15498;SDS011;7851;52.260;6.030;2023-05-10T05:54:17;71;;;40.4;;
15498;SDS011;7851;52.260;6.030;2023-05-10T05:55:17;77.5;;;42.7;;
15498;SDS011;7851;52.260;6.030;2023-05-10T05:56:17;64.2;;;40;;
15498;SDS011;7851;52.260;6.030;2023-05-10T05:57:17;77.6;;;42.4;;
15498;SDS011;7851;52.260;6.030;2023-05-10T05:58:17;62.2;;;38.3;;
15498;SDS011;7851;52.260;6.030;2023-05-10T05:59:17;71;;;39.3;;
15498;SDS011;7851;52.260;6.030;2023-05-10T06:00:17;65.8;;;38.5;;
15498;SDS011;7851;52.260;6.030;2023-05-10T06:01:17;66.3;;;38.1;;
15498;SDS011;7851;52.260;6.030;2023-05-10T06:02:17;70.9;;;39.4;;
15498;SDS011;7851;52.260;6.030;2023-05-10T06:03:17;63.6;;;38.5;;
15498;SDS011;7851;52.260;6.030;2023-05-10T06:04:18;70.6;;;40.6;;
15498;SDS011;7851;52.260;6.030;2023-05-10T06:05:17;73;;;41.8;;
15498;SDS011;7851;52.260;6.030;2023-05-10T06:06:17;70.6;;;41;;
15498;SDS011;7851;52.260;6.030;2023-05-10T06:07:17;66.9;;;41.2;;
15498;SDS011;7851;52.260;6.030;2023-05-10T06:08:17;66.5;;;40.6;;
15498;SDS011;7851;52.260;6.030;2023-05-10T06:09:17;74.3;;;40.4;;
15498;SDS011;7851;52.260;6.030;2023-05-10T06:10:17;71.5;;;40.5;;
15498;SDS011;7851;52.260;6.030;2023-05-10T06:11:17;79.6;;;42.2;;
15498;SDS011;7851;52.260;6.030;2023-05-10T06:12:17;69.7;;;40.4;;
15498;SDS011;7851;52.260;6.030;2023-05-10T06:13:17;70.7;;;41.1;;